sensor_id;sensor_type;location;lat;lon;timestamp;pressure;altitude;pressure_sealevel;temperature;humidity
54648;BME280;40543;53.584;9.858;2023-03-30T00:00:07;54399.38;;;-144.59;100.00
54648;BME280;40543;53.584;9.858;2023-03-30T00:02:49;54413.53;;;-144.59;100.00
54648;BME280;40543;53.584;9.858;2023-03-30T00:05:18;54417.56;;;-144.59;100.00
54648;BME280;40543;53.584;9.858;2023-03-30T00:07:45;54449.91;;;-144.59;100.00
54648;BME280;40543;53.584;9.858;2023-03-30T00:10:13;54472.16;;;-144.59;100.00
54648;BME280;40543;53.584;9.858;2023-03-30T00:12:39;54407.47;;;-144.59;100.00
54648;BME280;40543;53.584;9.858;2023-03-30T00:15:08;54484.28;;;-144.59;100.00
54648;BME280;40543;53.584;9.858;2023-03-30T00:17:34;54421.59;;;-144.59;100.00
54648;BME280;40543;53.584;9.858;2023-03-30T00:20:00;54419.59;;;-144.59;100.00
54648;BME280;40543;53.584;9.858;2023-03-30T00:22:27;54419.59;;;-144.59;100.00
54648;BME280;40543;53.584;9.858;2023-03-30T00:24:52;54401.41;;;-144.59;100.00
54648;BME280;40543;53.584;9.858;2023-03-30T00:27:18;54399.38;;;-144.59;100.00
54648;BME280;40543;53.584;9.858;2023-03-30T00:29:43;54464.06;;;-144.59;100.00
54648;BME280;40543;53.584;9.858;2023-03-30T00:32:08;54413.53;;;-144.59;100.00
54648;BME280;40543;53.584;9.858;2023-03-30T00:34:34;54429.69;;;-144.59;100.00
54648;BME280;40543;53.584;9.858;2023-03-30T00:36:59;54403.41;;;-144.59;100.00
54648;BME280;40543;53.584;9.858;2023-03-30T00:39:25;54512.59;;;-144.59;100.00
54648;BME280;40543;53.584;9.858;2023-03-30T00:41:51;54455.97;;;-144.59;100.00
54648;BME280;40543;53.584;9.858;2023-03-30T00:47:18;54427.69;;;-144.59;100.00
54648;BME280;40543;53.584;9.858;2023-03-30T00:49:47;54470.13;;;-144.59;100.00
54648;BME280;40543;53.584;9.858;2023-03-30T00:52:13;54464.06;;;-144.59;100.00
54648;BME280;40543;53.584;9.858;2023-03-30T00:54:43;54464.06;;;-144.59;100.00
54648;BME280;40543;53.584;9.858;2023-03-30T00:57:09;54464.06;;;-144.59;100.00
54648;BME280;40543;53.584;9.858;2023-03-30T00:59:35;54433.75;;;-144.59;100.00
54648;BME280;40543;53.584;9.858;2023-03-30T01:02:00;54445.88;;;-144.59;100.00
54648;BME280;40543;53.584;9.858;2023-03-30T01:04:26;54451.94;;;-144.59;100.00
54648;BME280;40543;53.584;9.858;2023-03-30T01:06:53;54427.69;;;-144.59;100.00
54648;BME280;40543;53.584;9.858;2023-03-30T01:09:19;54417.56;;;-144.59;100.00
54648;BME280;40543;53.584;9.858;2023-03-30T01:11:45;54439.81;;;-144.59;100.00
54648;BME280;40543;53.584;9.858;2023-03-30T01:14:11;54443.84;;;-144.59;100.00
54648;BME280;40543;53.584;9.858;2023-03-30T01:19:42;54427.69;;;-144.59;100.00
54648;BME280;40543;53.584;9.858;2023-03-30T01:25:46;54417.56;;;-144.59;100.00
54648;BME280;40543;53.584;9.858;2023-03-30T01:39:21;54474.16;;;-144.59;100.00
54648;BME280;40543;53.584;9.858;2023-03-30T01:42:06;54460.03;;;-144.59;100.00
54648;BME280;40543;53.584;9.858;2023-03-30T01:44:52;54427.69;;;-144.59;100.00
54648;BME280;40543;53.584;9.858;2023-03-30T01:47:39;54447.88;;;-144.59;100.00
54648;BME280;40543;53.584;9.858;2023-03-30T01:50:29;54449.91;;;-144.59;100.00
54648;BME280;40543;53.584;9.858;2023-03-30T01:52:59;54413.53;;;-144.59;100.00
54648;BME280;40543;53.584;9.858;2023-03-30T01:55:32;54413.53;;;-144.59;100.00
54648;BME280;40543;53.584;9.858;2023-03-30T01:58:11;54498.44;;;-144.59;100.00
54648;BME280;40543;53.584;9.858;2023-03-30T02:00:40;54425.66;;;-144.59;100.00
54648;BME280;40543;53.584;9.858;2023-03-30T02:03:11;54435.75;;;-144.59;100.00
54648;BME280;40543;53.584;9.858;2023-03-30T02:05:39;54460.03;;;-144.59;100.00
54648;BME280;40543;53.584;9.858;2023-03-30T02:08:18;54439.81;;;-144.59;100.00
54648;BME280;40543;53.584;9.858;2023-03-30T02:10:47;54466.09;;;-144.59;100.00
54648;BME280;40543;53.584;9.858;2023-03-30T02:13:15;54445.88;;;-144.59;100.00
54648;BME280;40543;53.584;9.858;2023-03-30T02:15:45;54419.59;;;-144.59;100.00
54648;BME280;40543;53.584;9.858;2023-03-30T02:18:12;54419.59;;;-144.59;100.00
54648;BME280;40543;53.584;9.858;2023-03-30T02:20:37;54435.75;;;-144.59;100.00
54648;BME280;40543;53.584;9.858;2023-03-30T02:23:04;54425.66;;;-144.59;100.00
54648;BME280;40543;53.584;9.858;2023-03-30T02:25:32;54445.88;;;-144.59;100.00
54648;BME280;40543;53.584;9.858;2023-03-30T02:27:57;54431.72;;;-144.59;100.00
54648;BME280;40543;53.584;9.858;2023-03-30T02:30:23;54480.25;;;-144.59;100.00
54648;BME280;40543;53.584;9.858;2023-03-30T02:32:52;54455.97;;;-144.59;100.00
54648;BME280;40543;53.584;9.858;2023-03-30T02:38:54;54441.81;;;-144.59;100.00
54648;BME280;40543;53.584;9.858;2023-03-30T02:44:11;54460.03;;;-144.59;100.00
54648;BME280;40543;53.584;9.858;2023-03-30T02:47:07;54484.28;;;-144.59;100.00
54648;BME280;40543;53.584;9.858;2023-03-30T02:53:41;54458.00;;;-144.59;100.00
54648;BME280;40543;53.584;9.858;2023-03-30T02:56:14;54431.72;;;-144.59;100.00
54648;BME280;40543;53.584;9.858;2023-03-30T02:58:42;54419.59;;;-144.59;100.00
54648;BME280;40543;53.584;9.858;2023-03-30T03:01:22;54427.69;;;-144.59;100.00
54648;BME280;40543;53.584;9.858;2023-03-30T03:03:51;54423.63;;;-144.59;100.00
54648;BME280;40543;53.584;9.858;2023-03-30T03:06:19;54500.44;;;-144.59;100.00
54648;BME280;40543;53.584;9.858;2023-03-30T03:08:45;54453.97;;;-144.59;100.00
54648;BME280;40543;53.584;9.858;2023-03-30T03:11:12;54470.13;;;-144.59;100.00
54648;BME280;40543;53.584;9.858;2023-03-30T03:13:38;54431.72;;;-144.59;100.00
54648;BME280;40543;53.584;9.858;2023-03-30T03:16:05;54486.31;;;-144.59;100.00
54648;BME280;40543;53.584;9.858;2023-03-30T03:18:32;54451.94;;;-144.59;100.00
54648;BME280;40543;53.584;9.858;2023-03-30T03:20:59;54496.41;;;-144.59;100.00
54648;BME280;40543;53.584;9.858;2023-03-30T03:23:24;54492.38;;;-144.59;100.00
54648;BME280;40543;53.584;9.858;2023-03-30T03:25:51;54455.97;;;-144.59;100.00
54648;BME280;40543;53.584;9.858;2023-03-30T03:28:16;54504.50;;;-144.59;100.00
54648;BME280;40543;53.584;9.858;2023-03-30T03:30:41;54427.69;;;-144.59;100.00
54648;BME280;40543;53.584;9.858;2023-03-30T03:33:07;54484.28;;;-144.59;100.00
54648;BME280;40543;53.584;9.858;2023-03-30T03:35:32;54468.09;;;-144.59;100.00
54648;BME280;40543;53.584;9.858;2023-03-30T03:37:58;54449.91;;;-144.59;100.00
54648;BME280;40543;53.584;9.858;2023-03-30T03:40:24;54449.91;;;-144.59;100.00
54648;BME280;40543;53.584;9.858;2023-03-30T03:42:50;54466.09;;;-144.59;100.00
54648;BME280;40543;53.584;9.858;2023-03-30T03:45:15;54460.03;;;-144.59;100.00
54648;BME280;40543;53.584;9.858;2023-03-30T03:47:40;54451.94;;;-144.59;100.00
54648;BME280;40543;53.584;9.858;2023-03-30T03:50:06;54472.16;;;-144.59;100.00
54648;BME280;40543;53.584;9.858;2023-03-30T03:52:34;54425.66;;;-144.59;100.00
54648;BME280;40543;53.584;9.858;2023-03-30T03:55:00;54498.44;;;-144.59;100.00
54648;BME280;40543;53.584;9.858;2023-03-30T03:57:26;54494.38;;;-144.59;100.00
54648;BME280;40543;53.584;9.858;2023-03-30T03:59:51;54476.19;;;-144.59;100.00
54648;BME280;40543;53.584;9.858;2023-03-30T04:02:17;54480.25;;;-144.59;100.00
54648;BME280;40543;53.584;9.858;2023-03-30T04:04:43;54476.19;;;-144.59;100.00
54648;BME280;40543;53.584;9.858;2023-03-30T04:07:08;54439.81;;;-144.59;100.00
54648;BME280;40543;53.584;9.858;2023-03-30T04:09:34;54455.97;;;-144.59;100.00
54648;BME280;40543;53.584;9.858;2023-03-30T04:11:59;54482.25;;;-144.59;100.00
54648;BME280;40543;53.584;9.858;2023-03-30T04:14:25;54458.00;;;-144.59;100.00
54648;BME280;40543;53.584;9.858;2023-03-30T04:16:50;54431.72;;;-144.59;100.00
54648;BME280;40543;53.584;9.858;2023-03-30T04:19:16;54447.88;;;-144.59;100.00
54648;BME280;40543;53.584;9.858;2023-03-30T04:21:41;54466.09;;;-144.59;100.00
54648;BME280;40543;53.584;9.858;2023-03-30T04:24:12;54464.06;;;-144.59;100.00
54648;BME280;40543;53.584;9.858;2023-03-30T04:26:37;54445.88;;;-144.59;100.00
54648;BME280;40543;53.584;9.858;2023-03-30T04:29:06;54468.09;;;-144.59;100.00
54648;BME280;40543;53.584;9.858;2023-03-30T04:31:32;54460.03;;;-144.59;100.00
54648;BME280;40543;53.584;9.858;2023-03-30T04:34:00;54472.16;;;-144.59;100.00
54648;BME280;40543;53.584;9.858;2023-03-30T04:36:27;54478.22;;;-144.59;100.00
54648;BME280;40543;53.584;9.858;2023-03-30T04:38:53;54474.16;;;-144.59;100.00
54648;BME280;40543;53.584;9.858;2023-03-30T04:41:27;54496.41;;;-144.59;100.00
54648;BME280;40543;53.584;9.858;2023-03-30T04:44:04;54451.94;;;-144.59;100.00
54648;BME280;40543;53.584;9.858;2023-03-30T04:46:30;54486.31;;;-144.59;100.00
54648;BME280;40543;53.584;9.858;2023-03-30T04:48:56;54433.75;;;-144.59;100.00
54648;BME280;40543;53.584;9.858;2023-03-30T04:51:22;54435.75;;;-144.59;100.00
54648;BME280;40543;53.584;9.858;2023-03-30T04:53:47;54476.19;;;-144.59;100.00
54648;BME280;40543;53.584;9.858;2023-03-30T04:56:13;54464.06;;;-144.59;100.00
54648;BME280;40543;53.584;9.858;2023-03-30T04:58:38;54484.28;;;-144.59;100.00
54648;BME280;40543;53.584;9.858;2023-03-30T05:01:03;54462.03;;;-144.59;100.00
54648;BME280;40543;53.584;9.858;2023-03-30T05:03:29;54453.97;;;-144.59;100.00
54648;BME280;40543;53.584;9.858;2023-03-30T05:05:55;54482.25;;;-144.59;100.00
54648;BME280;40543;53.584;9.858;2023-03-30T05:08:21;54474.16;;;-144.59;100.00
54648;BME280;40543;53.584;9.858;2023-03-30T05:10:46;54472.16;;;-144.59;100.00
54648;BME280;40543;53.584;9.858;2023-03-30T05:13:12;54443.84;;;-144.59;100.00
54648;BME280;40543;53.584;9.858;2023-03-30T05:15:37;54395.34;;;-144.59;100.00
54648;BME280;40543;53.584;9.858;2023-03-30T05:18:04;54441.81;;;-144.59;100.00
54648;BME280;40543;53.584;9.858;2023-03-30T05:20:29;54433.75;;;-144.59;100.00
54648;BME280;40543;53.584;9.858;2023-03-30T05:22:55;54425.66;;;-144.59;100.00
54648;BME280;40543;53.584;9.858;2023-03-30T05:25:21;54484.28;;;-144.59;100.00
54648;BME280;40543;53.584;9.858;2023-03-30T05:27:46;54470.13;;;-144.59;100.00
54648;BME280;40543;53.584;9.858;2023-03-30T05:30:11;54460.03;;;-144.59;100.00
54648;BME280;40543;53.584;9.858;2023-03-30T05:32:37;54407.47;;;-144.59;100.00
54648;BME280;40543;53.584;9.858;2023-03-30T05:35:03;54443.84;;;-144.59;100.00
54648;BME280;40543;53.584;9.858;2023-03-30T05:37:29;54447.88;;;-144.59;100.00
54648;BME280;40543;53.584;9.858;2023-03-30T05:39:56;54455.97;;;-144.59;100.00
54648;BME280;40543;53.584;9.858;2023-03-30T05:42:21;54460.03;;;-144.59;100.00
54648;BME280;40543;53.584;9.858;2023-03-30T05:44:47;54425.66;;;-144.59;100.00
54648;BME280;40543;53.584;9.858;2023-03-30T05:47:12;54435.75;;;-144.59;100.00
54648;BME280;40543;53.584;9.858;2023-03-30T05:49:38;54389.25;;;-144.59;100.00
54648;BME280;40543;53.584;9.858;2023-03-30T05:52:03;54445.88;;;-144.59;100.00
54648;BME280;40543;53.584;9.858;2023-03-30T05:54:29;54460.03;;;-144.59;100.00
54648;BME280;40543;53.584;9.858;2023-03-30T05:56:55;54415.53;;;-144.59;100.00
54648;BME280;40543;53.584;9.858;2023-03-30T05:59:20;54449.91;;;-144.59;100.00
54648;BME280;40543;53.584;9.858;2023-03-30T06:01:45;54439.81;;;-144.59;100.00
54648;BME280;40543;53.584;9.858;2023-03-30T06:04:12;54437.78;;;-144.59;100.00
54648;BME280;40543;53.584;9.858;2023-03-30T06:06:37;54449.91;;;-144.59;100.00
54648;BME280;40543;53.584;9.858;2023-03-30T06:09:03;54425.66;;;-144.59;100.00
54648;BME280;40543;53.584;9.858;2023-03-30T06:11:30;54480.25;;;-144.59;100.00
54648;BME280;40543;53.584;9.858;2023-03-30T06:13:56;54403.41;;;-144.59;100.00
54648;BME280;40543;53.584;9.858;2023-03-30T06:16:21;54431.72;;;-144.59;100.00
54648;BME280;40543;53.584;9.858;2023-03-30T06:18:47;54413.53;;;-144.59;100.00
54648;BME280;40543;53.584;9.858;2023-03-30T06:21:12;54403.41;;;-144.59;100.00
54648;BME280;40543;53.584;9.858;2023-03-30T06:23:37;54427.69;;;-144.59;100.00
54648;BME280;40543;53.584;9.858;2023-03-30T06:26:05;54447.88;;;-144.59;100.00
54648;BME280;40543;53.584;9.858;2023-03-30T06:28:32;54415.53;;;-144.59;100.00
54648;BME280;40543;53.584;9.858;2023-03-30T06:30:57;54405.44;;;-144.59;100.00
54648;BME280;40543;53.584;9.858;2023-03-30T06:33:25;54417.56;;;-144.59;100.00
54648;BME280;40543;53.584;9.858;2023-03-30T06:35:52;54451.94;;;-144.59;100.00
54648;BME280;40543;53.584;9.858;2023-03-30T06:38:19;54425.66;;;-144.59;100.00
54648;BME280;40543;53.584;9.858;2023-03-30T06:40:46;54409.47;;;-144.59;100.00
54648;BME280;40543;53.584;9.858;2023-03-30T06:43:20;54413.53;;;-144.59;100.00
54648;BME280;40543;53.584;9.858;2023-03-30T06:45:54;54415.53;;;-144.59;100.00
54648;BME280;40543;53.584;9.858;2023-03-30T06:48:22;54381.19;;;-144.59;100.00
54648;BME280;40543;53.584;9.858;2023-03-30T06:50:51;54413.53;;;-144.59;100.00
54648;BME280;40543;53.584;9.858;2023-03-30T06:53:17;54397.34;;;-144.59;100.00
54648;BME280;40543;53.584;9.858;2023-03-30T06:55:44;54399.38;;;-144.59;100.00
54648;BME280;40543;53.584;9.858;2023-03-30T06:58:09;54399.38;;;-144.59;100.00
54648;BME280;40543;53.584;9.858;2023-03-30T07:00:36;54411.50;;;-144.59;100.00
54648;BME280;40543;53.584;9.858;2023-03-30T07:03:01;54401.41;;;-144.59;100.00
54648;BME280;40543;53.584;9.858;2023-03-30T07:05:28;54377.13;;;-144.59;100.00
54648;BME280;40543;53.584;9.858;2023-03-30T07:07:54;54437.78;;;-144.59;100.00
54648;BME280;40543;53.584;9.858;2023-03-30T07:10:21;54399.38;;;-144.59;100.00
54648;BME280;40543;53.584;9.858;2023-03-30T07:12:46;54387.25;;;-144.59;100.00
54648;BME280;40543;53.584;9.858;2023-03-30T07:15:12;54443.84;;;-144.59;100.00
54648;BME280;40543;53.584;9.858;2023-03-30T07:17:38;54405.44;;;-144.59;100.00
54648;BME280;40543;53.584;9.858;2023-03-30T07:20:04;54371.06;;;-144.59;100.00
54648;BME280;40543;53.584;9.858;2023-03-30T07:22:30;54415.53;;;-144.59;100.00
54648;BME280;40543;53.584;9.858;2023-03-30T07:24:56;54399.38;;;-144.59;100.00
54648;BME280;40543;53.584;9.858;2023-03-30T07:27:22;54403.41;;;-144.59;100.00
54648;BME280;40543;53.584;9.858;2023-03-30T07:29:50;54393.31;;;-144.59;100.00
54648;BME280;40543;53.584;9.858;2023-03-30T07:32:16;54395.34;;;-144.59;100.00
54648;BME280;40543;53.584;9.858;2023-03-30T07:34:42;54375.13;;;-144.59;100.00
54648;BME280;40543;53.584;9.858;2023-03-30T07:37:07;54342.78;;;-144.59;100.00
54648;BME280;40543;53.584;9.858;2023-03-30T07:39:32;54393.31;;;-144.59;100.00
54648;BME280;40543;53.584;9.858;2023-03-30T07:41:58;54423.63;;;-144.59;100.00
54648;BME280;40543;53.584;9.858;2023-03-30T07:44:23;54367.03;;;-144.59;100.00
54648;BME280;40543;53.584;9.858;2023-03-30T07:46:53;54340.75;;;-144.59;100.00
54648;BME280;40543;53.584;9.858;2023-03-30T07:49:18;54338.72;;;-144.59;100.00
54648;BME280;40543;53.584;9.858;2023-03-30T07:51:44;54352.88;;;-144.59;100.00
54648;BME280;40543;53.584;9.858;2023-03-30T07:54:09;54397.34;;;-144.59;100.00
54648;BME280;40543;53.584;9.858;2023-03-30T07:56:35;54342.78;;;-144.59;100.00
54648;BME280;40543;53.584;9.858;2023-03-30T07:59:04;54318.50;;;-144.59;100.00
54648;BME280;40543;53.584;9.858;2023-03-30T08:01:30;54391.28;;;-144.59;100.00
54648;BME280;40543;53.584;9.858;2023-03-30T08:03:56;54365.00;;;-144.59;100.00
54648;BME280;40543;53.584;9.858;2023-03-30T08:06:22;54395.34;;;-144.59;100.00
54648;BME280;40543;53.584;9.858;2023-03-30T08:08:48;54362.97;;;-144.59;100.00
54648;BME280;40543;53.584;9.858;2023-03-30T08:11:13;54389.25;;;-144.59;100.00
54648;BME280;40543;53.584;9.858;2023-03-30T08:13:40;54367.03;;;-144.59;100.00
54648;BME280;40543;53.584;9.858;2023-03-30T08:16:06;54381.19;;;-144.59;100.00
54648;BME280;40543;53.584;9.858;2023-03-30T08:18:33;54344.78;;;-144.59;100.00
54648;BME280;40543;53.584;9.858;2023-03-30T08:20:58;54310.41;;;-144.59;100.00
54648;BME280;40543;53.584;9.858;2023-03-30T08:23:24;54383.19;;;-144.59;100.00
54648;BME280;40543;53.584;9.858;2023-03-30T08:25:50;54326.59;;;-144.59;100.00
54648;BME280;40543;53.584;9.858;2023-03-30T08:28:19;54338.72;;;-144.59;100.00
54648;BME280;40543;53.584;9.858;2023-03-30T08:30:45;54354.91;;;-144.59;100.00
54648;BME280;40543;53.584;9.858;2023-03-30T08:33:11;54385.22;;;-144.59;100.00
54648;BME280;40543;53.584;9.858;2023-03-30T08:35:37;54375.13;;;-144.59;100.00
54648;BME280;40543;53.584;9.858;2023-03-30T08:38:03;54350.84;;;-144.59;100.00
54648;BME280;40543;53.584;9.858;2023-03-30T08:40:29;54346.81;;;-144.59;100.00
54648;BME280;40543;53.584;9.858;2023-03-30T08:43:01;54391.28;;;-144.59;100.00
54648;BME280;40543;53.584;9.858;2023-03-30T08:45:37;54417.56;;;-144.59;100.00
54648;BME280;40543;53.584;9.858;2023-03-30T08:48:18;54328.63;;;-144.59;100.00
54648;BME280;40543;53.584;9.858;2023-03-30T08:50:59;54193.19;;;-144.59;100.00
54648;BME280;40543;53.584;9.858;2023-03-30T08:53:27;54296.28;;;-144.59;100.00
54648;BME280;40543;53.584;9.858;2023-03-30T08:56:02;54298.28;;;-144.59;100.00
54648;BME280;40543;53.584;9.858;2023-03-30T09:06:53;54270.00;;;-144.59;100.00
54648;BME280;40543;53.584;9.858;2023-03-30T09:09:24;54274.03;;;-144.59;100.00
54648;BME280;40543;53.584;9.858;2023-03-30T09:12:04;54237.66;;;-144.59;100.00
54648;BME280;40543;53.584;9.858;2023-03-30T09:14:34;54177.00;;;-144.59;100.00
54648;BME280;40543;53.584;9.858;2023-03-30T09:17:07;54223.50;;;-144.59;100.00
54648;BME280;40543;53.584;9.858;2023-03-30T09:20:10;54185.09;;;-144.59;100.00
54648;BME280;40543;53.584;9.858;2023-03-30T09:22:40;54290.22;;;-144.59;100.00
54648;BME280;40543;53.584;9.858;2023-03-30T09:25:16;54298.28;;;-144.59;100.00
54648;BME280;40543;53.584;9.858;2023-03-30T09:27:55;54338.72;;;-144.59;100.00
54648;BME280;40543;53.584;9.858;2023-03-30T09:30:38;54360.97;;;-144.59;100.00
54648;BME280;40543;53.584;9.858;2023-03-30T09:33:16;54336.69;;;-144.59;100.00
54648;BME280;40543;53.584;9.858;2023-03-30T09:35:56;54352.88;;;-144.59;100.00
54648;BME280;40543;53.584;9.858;2023-03-30T09:38:23;54338.72;;;-144.59;100.00
54648;BME280;40543;53.584;9.858;2023-03-30T09:43:37;54302.34;;;-144.59;100.00
54648;BME280;40543;53.584;9.858;2023-03-30T09:46:06;54338.72;;;-144.59;100.00
54648;BME280;40543;53.584;9.858;2023-03-30T09:51:25;54286.16;;;-144.59;100.00
54648;BME280;40543;53.584;9.858;2023-03-30T09:53:57;54253.81;;;-144.59;100.00
54648;BME280;40543;53.584;9.858;2023-03-30T09:56:28;54077.94;;;-144.59;100.00
54648;BME280;40543;53.584;9.858;2023-03-30T10:01:43;54219.44;;;-144.59;100.00
54648;BME280;40543;53.584;9.858;2023-03-30T10:04:10;54245.72;;;-144.59;100.00
54648;BME280;40543;53.584;9.858;2023-03-30T10:06:38;54207.31;;;-144.59;100.00
54648;BME280;40543;53.584;9.858;2023-03-30T10:09:10;54243.72;;;-144.59;100.00
54648;BME280;40543;53.584;9.858;2023-03-30T10:11:44;54197.22;;;-144.59;100.00
54648;BME280;40543;53.584;9.858;2023-03-30T10:14:22;54215.41;;;-144.59;100.00
54648;BME280;40543;53.584;9.858;2023-03-30T10:16:51;54288.19;;;-144.59;100.00
54648;BME280;40543;53.584;9.858;2023-03-30T10:19:20;54286.16;;;-144.59;100.00
54648;BME280;40543;53.584;9.858;2023-03-30T10:21:47;54257.88;;;-144.59;100.00
54648;BME280;40543;53.584;9.858;2023-03-30T10:24:21;54282.13;;;-144.59;100.00
54648;BME280;40543;53.584;9.858;2023-03-30T10:26:51;54243.72;;;-144.59;100.00
54648;BME280;40543;53.584;9.858;2023-03-30T10:29:18;54253.81;;;-144.59;100.00
54648;BME280;40543;53.584;9.858;2023-03-30T10:31:48;54253.81;;;-144.59;100.00
54648;BME280;40543;53.584;9.858;2023-03-30T10:34:19;54144.66;;;-144.59;100.00
54648;BME280;40543;53.584;9.858;2023-03-30T10:36:50;54177.00;;;-144.59;100.00
54648;BME280;40543;53.584;9.858;2023-03-30T10:41:48;54251.81;;;-144.59;100.00
54648;BME280;40543;53.584;9.858;2023-03-30T10:44:30;54265.94;;;-144.59;100.00
54648;BME280;40543;53.584;9.858;2023-03-30T10:50:23;54310.41;;;-144.59;100.00
54648;BME280;40543;53.584;9.858;2023-03-30T10:53:15;54306.38;;;-144.59;100.00
54648;BME280;40543;53.584;9.858;2023-03-30T10:56:05;54358.94;;;-144.59;100.00
54648;BME280;40543;53.584;9.858;2023-03-30T11:04:04;54233.59;;;-144.59;100.00
54648;BME280;40543;53.584;9.858;2023-03-30T11:06:33;54215.41;;;-144.59;100.00
54648;BME280;40543;53.584;9.858;2023-03-30T11:09:04;54217.44;;;-144.59;100.00
54648;BME280;40543;53.584;9.858;2023-03-30T11:11:34;54174.97;;;-144.59;99.93
54648;BME280;40543;53.584;9.858;2023-03-30T11:14:06;54124.44;;;-144.59;100.00
54648;BME280;40543;53.584;9.858;2023-03-30T11:16:48;53982.94;;;-144.59;75.93
54648;BME280;40543;53.584;9.858;2023-03-30T11:19:37;54112.31;;;-144.59;74.03
54648;BME280;40543;53.584;9.858;2023-03-30T11:22:14;54049.66;;;-144.59;75.60
54648;BME280;40543;53.584;9.858;2023-03-30T11:24:43;53991.03;;;-144.59;69.95
54648;BME280;40543;53.584;9.858;2023-03-30T11:27:19;54015.28;;;-144.59;68.83
54648;BME280;40543;53.584;9.858;2023-03-30T11:30:25;54100.19;;;-144.59;73.17
54648;BME280;40543;53.584;9.858;2023-03-30T11:33:01;54096.16;;;-144.59;75.88
54648;BME280;40543;53.584;9.858;2023-03-30T11:38:07;53873.78;;;-144.59;70.27
54648;BME280;40543;53.584;9.858;2023-03-30T11:42:59;54108.28;;;-144.59;76.17
54648;BME280;40543;53.584;9.858;2023-03-30T11:45:49;54166.91;;;-144.59;73.62
54648;BME280;40543;53.584;9.858;2023-03-30T11:57:22;54249.78;;;-144.59;100.00
54648;BME280;40543;53.584;9.858;2023-03-30T12:07:58;54304.34;;;-144.59;100.00
54648;BME280;40543;53.584;9.858;2023-03-30T12:13:00;54379.16;;;-144.59;100.00
54648;BME280;40543;53.584;9.858;2023-03-30T12:15:51;54395.34;;;-144.59;100.00
54648;BME280;40543;53.584;9.858;2023-03-30T12:18:40;54310.41;;;-144.59;100.00
54648;BME280;40543;53.584;9.858;2023-03-30T12:23:52;54324.56;;;-144.59;100.00
54648;BME280;40543;53.584;9.858;2023-03-30T12:26:25;54274.03;;;-144.59;100.00
54648;BME280;40543;53.584;9.858;2023-03-30T12:28:57;54257.88;;;-144.59;100.00
54648;BME280;40543;53.584;9.858;2023-03-30T12:31:47;54138.59;;;-144.59;100.00
54648;BME280;40543;53.584;9.858;2023-03-30T12:34:13;54211.38;;;-144.59;100.00
54648;BME280;40543;53.584;9.858;2023-03-30T12:36:40;53805.06;;;-144.59;100.00
54648;BME280;40543;53.584;9.858;2023-03-30T12:39:13;53823.25;;;-144.59;100.00
54648;BME280;40543;53.584;9.858;2023-03-30T12:41:44;53966.78;;;-144.59;89.87
54648;BME280;40543;53.584;9.858;2023-03-30T12:44:30;53829.31;;;-144.59;83.01
54648;BME280;40543;53.584;9.858;2023-03-30T12:52:36;54227.53;;;-144.59;100.00
54648;BME280;40543;53.584;9.858;2023-03-30T13:03:27;54284.16;;;-144.59;100.00
54648;BME280;40543;53.584;9.858;2023-03-30T13:05:59;54288.19;;;-144.59;100.00
54648;BME280;40543;53.584;9.858;2023-03-30T13:08:34;54265.94;;;-144.59;100.00
54648;BME280;40543;53.584;9.858;2023-03-30T13:11:20;54203.28;;;-144.59;100.00
54648;BME280;40543;53.584;9.858;2023-03-30T13:13:57;54217.44;;;-144.59;100.00
54648;BME280;40543;53.584;9.858;2023-03-30T13:21:56;54261.91;;;-144.59;100.00
54648;BME280;40543;53.584;9.858;2023-03-30T13:24:35;54294.25;;;-144.59;100.00
54648;BME280;40543;53.584;9.858;2023-03-30T13:29:59;53849.53;;;-144.59;86.70
54648;BME280;40543;53.584;9.858;2023-03-30T13:32:26;54045.59;;;-144.59;76.18
54648;BME280;40543;53.584;9.858;2023-03-30T13:40:29;54253.81;;;-144.59;81.14
54648;BME280;40543;53.584;9.858;2023-03-30T13:48:42;54280.09;;;-144.59;82.70
54648;BME280;40543;53.584;9.858;2023-03-30T13:51:23;54267.97;;;-144.59;84.64
54648;BME280;40543;53.584;9.858;2023-03-30T13:53:57;54263.94;;;-144.59;81.37
54648;BME280;40543;53.584;9.858;2023-03-30T13:56:25;54253.81;;;-144.59;83.04
54648;BME280;40543;53.584;9.858;2023-03-30T13:59:18;54263.94;;;-144.59;80.74
54648;BME280;40543;53.584;9.858;2023-03-30T14:01:52;54284.16;;;-144.59;82.45
54648;BME280;40543;53.584;9.858;2023-03-30T14:04:18;54249.78;;;-144.59;81.72
54648;BME280;40543;53.584;9.858;2023-03-30T14:06:45;54253.81;;;-144.59;84.18
54648;BME280;40543;53.584;9.858;2023-03-30T14:09:19;54253.81;;;-144.59;83.11
54648;BME280;40543;53.584;9.858;2023-03-30T14:11:56;54274.03;;;-144.59;83.36
54648;BME280;40543;53.584;9.858;2023-03-30T14:16:55;54231.59;;;-144.59;83.31
54648;BME280;40543;53.584;9.858;2023-03-30T14:19:22;54217.44;;;-144.59;84.54
54648;BME280;40543;53.584;9.858;2023-03-30T14:21:52;54263.94;;;-144.59;82.90
54648;BME280;40543;53.584;9.858;2023-03-30T14:24:26;54219.44;;;-144.59;83.33
54648;BME280;40543;53.584;9.858;2023-03-30T14:26:51;54259.88;;;-144.59;83.50
54648;BME280;40543;53.584;9.858;2023-03-30T14:29:19;54177.00;;;-144.59;81.78
54648;BME280;40543;53.584;9.858;2023-03-30T14:31:49;54156.78;;;-144.59;80.20
54648;BME280;40543;53.584;9.858;2023-03-30T14:34:23;53936.44;;;-144.59;72.41
54648;BME280;40543;53.584;9.858;2023-03-30T14:36:51;53801.03;;;-144.59;58.23
54648;BME280;40543;53.584;9.858;2023-03-30T14:39:19;53734.31;;;-144.59;54.37
54648;BME280;40543;53.584;9.858;2023-03-30T14:41:46;53687.84;;;-144.59;54.30
54648;BME280;40543;53.584;9.858;2023-03-30T14:44:20;53683.78;;;-144.59;50.26